Estación Meteorológica Peña el Pijo (Robertgarden) [ 06/22/17 18:32:59 CEST ]

Fecha Hora Presion(HPa) Temp (°C) Humedad % Rocio (°C) Viento ( m/s) Direccion Lluvia 1Hora(mm) Lluvia 24H(mm) LLuvia Total(mm)
2017-May-26 01:01:54 1009.800 12.9 75 8.5         1390.83
2017-May-26 02:01:52 1009.200 12.2 76 8.1         1390.83
2017-May-26 03:01:56 1009.500 10.8 76 6.7         1390.83
2017-May-26 04:02:22 1009.200 10.2 78 6.5         1390.83
2017-May-26 05:02:16 1008.700 10.5 79 7.0         1390.83
2017-May-26 06:02:18 1008.400 9.9 79 6.4         1390.83
2017-May-26 07:01:53 1008.700 9.7 80 6.4         1390.83
2017-May-26 08:01:48 1008.300 11.7 82 8.7         1390.83
2017-May-26 09:01:51 1008.100 18.5 69 12.7         1390.83
2017-May-26 10:01:51 1008.100 25.1 49 13.6         1390.83
2017-May-26 11:01:45 1007.800 30.5 32 11.9         1390.83
2017-May-26 12:01:43 1008.000 31.0 29 10.8         1390.83
2017-May-26 13:01:46 1007.900 31.9 25 9.8 2.4 SSW     1390.83
2017-May-26 14:01:37 1007.700 30.6 26 8.7         1390.83
2017-May-26 15:01:43 1007.400 31.8 24 8.5         1390.83
2017-May-26 16:01:26 1007.100 32.5 24 9.1         1390.83
2017-May-26 17:01:41 1006.700 31.9 24 8.6         1390.83
2017-May-26 18:01:33 1006.700 28.4 28 8.0 0.7 SSE     1390.83
2017-May-26 19:01:35 1007.000 25.5 32 7.5         1390.83
2017-May-26 20:01:42 1007.400 23.8 36 7.7         1390.83
2017-May-26 21:01:34 1007.500 22.3 39 7.6         1390.83
2017-May-26 22:02:01 1008.300 20.3 42 6.9         1390.83
2017-May-26 23:02:02 1009.400 16.8 51 6.6         1390.83

Temperatura Máxima:32°    Temperatura Mínima:
Presión Máxima:1009.800 Hpa    Presión Mínima:1006.700 Hpa


Volver